Usinsk, Russia
Current Conditions -  °F | °C
As of 11:30 AM on Friday 19 Dec 2014 (Local Time) from UUYY Reporting Station
Overcast Overcast  
Wind Chill: 24°   Ceiling: 3300
Heat Index: 30°   Visibility: 6mi
Dew Point: 25°   Wind: 7mph
Humidity: 80%   Direction: 210°SSW
Pressure: 29.65"   Gusts: NA
Location:  65.92°N, 57.41°E
Report Text: UUYY 190830Z 21003MPS 9000 BKN033 OVC066 M01/M04 Q1004 NOSIG19590539 RMK QFE744/0992
Loading
Personal Weather Stations






























Interactive Weather Map New forecast layout! Learn more

10-Day Weather Forecast

Advertisements
Track Severe Weather on mobile